createdAt,value
2023-02-16T00:01:04.112Z,71.55371
2023-02-16T00:03:03.488Z,71.20703
2023-02-16T00:05:03.534Z,71.25977
2023-02-16T00:07:03.450Z,71.18262
2023-02-16T00:09:03.415Z,71.59473
2023-02-16T00:11:04.221Z,71.81641
2023-02-16T00:14:01.912Z,71.16113
2023-02-16T00:16:02.018Z,71.66309
2023-02-16T00:18:01.863Z,71.625
2023-02-16T00:20:01.994Z,71.61035
2023-02-16T00:22:01.939Z,71.82813
2023-02-16T00:24:01.858Z,71.67578
2023-02-16T00:26:01.892Z,71.53613
2023-02-16T00:28:46.665Z,71.96973
2023-02-16T00:30:46.818Z,72.62012
2023-02-16T00:32:46.678Z,72.24219
2023-02-16T00:34:46.666Z,71.96191
2023-02-16T00:36:46.691Z,71.2959
2023-02-16T00:38:46.677Z,71.79102
2023-02-16T00:40:46.665Z,71.83691
2023-02-16T00:44:43.727Z,71.71875
2023-02-16T00:46:43.756Z,72.01465
2023-02-16T00:48:45.453Z,72.21582
2023-02-16T00:50:43.755Z,72.10156
2023-02-16T00:52:43.776Z,71.7998
2023-02-16T00:54:43.805Z,71.625
2023-02-16T00:56:43.759Z,71.43262
2023-02-16T00:59:30.468Z,71.44824
2023-02-16T01:01:30.686Z,71.4873
2023-02-16T01:03:30.608Z,71.10645
2023-02-16T01:05:30.565Z,71.3916
2023-02-16T01:07:30.393Z,71.61523
2023-02-16T01:09:30.586Z,71.60449
2023-02-16T01:11:30.612Z,72.02246
2023-02-16T01:14:48.396Z,72.05469
2023-02-16T01:16:48.350Z,72.29492
2023-02-16T01:18:48.404Z,72.3252
2023-02-16T01:20:48.423Z,72.21582
2023-02-16T01:22:48.340Z,72.25098
2023-02-16T01:24:48.370Z,72.21387
2023-02-16T01:26:48.459Z,72.05371
2023-02-16T01:30:14.441Z,71.92871
2023-02-16T01:32:14.892Z,72.17383
2023-02-16T01:34:14.287Z,72.50195
2023-02-16T01:36:14.309Z,71.75
2023-02-16T01:38:14.296Z,71.49512
2023-02-16T01:40:14.345Z,71.18945
2023-02-16T01:42:14.357Z,71.73438
2023-02-16T01:45:20.018Z,70.94727
2023-02-16T01:47:19.999Z,71.01367
2023-02-16T01:49:20.000Z,70.96387
2023-02-16T01:51:20.044Z,71.3877
2023-02-16T01:53:20.031Z,71.58887
2023-02-16T01:55:20.035Z,71.29004
2023-02-16T01:57:20.053Z,71.76953
2023-02-16T02:00:30.712Z,71.91016
2023-02-16T02:02:30.727Z,72.50293
2023-02-16T02:04:30.707Z,72.7002
2023-02-16T02:06:30.649Z,72.98145
2023-02-16T02:08:30.736Z,73.39648
2023-02-16T02:10:30.656Z,73.8623
2023-02-16T02:12:30.770Z,74.07422
2023-02-16T02:15:37.369Z,73.25488
2023-02-16T02:17:37.415Z,72.42383
2023-02-16T02:19:37.385Z,72.32031
2023-02-16T02:21:37.362Z,71.90918
2023-02-16T02:23:37.347Z,72.25195
2023-02-16T02:25:37.411Z,71.96289
2023-02-16T02:27:37.664Z,71.7627
2023-02-16T02:30:48.058Z,72.60742
2023-02-16T02:32:47.913Z,72.16406
2023-02-16T02:34:47.912Z,71.45996
2023-02-16T02:36:47.911Z,72.05762
2023-02-16T02:38:47.930Z,72.63672
2023-02-16T02:40:47.892Z,72.65039
2023-02-16T02:42:48.014Z,72.08203
2023-02-16T02:45:51.513Z,72.2373
2023-02-16T02:47:51.431Z,72.83789
2023-02-16T02:49:51.390Z,73.01172
2023-02-16T02:51:51.473Z,72.67285
2023-02-16T02:53:51.412Z,72.1748
2023-02-16T02:55:51.424Z,72.00781
2023-02-16T02:57:51.513Z,71.7998
2023-02-16T03:00:42.370Z,71.2832
2023-02-16T03:02:42.304Z,71.11035
2023-02-16T03:04:42.405Z,71.28906
2023-02-16T03:06:42.629Z,71.31836
2023-02-16T03:08:42.312Z,71.85645
2023-02-16T03:10:42.284Z,71.52539
2023-02-16T03:12:42.297Z,71.20801
2023-02-16T03:16:10.739Z,71.27441
2023-02-16T03:18:10.373Z,71.43652
2023-02-16T03:20:10.348Z,71.36719
2023-02-16T03:22:10.385Z,71.05664
2023-02-16T03:24:10.384Z,71.27441
2023-02-16T03:26:10.350Z,72.24316
2023-02-16T03:28:10.344Z,72.5166
2023-02-16T03:30:58.299Z,72.55566
2023-02-16T03:32:58.186Z,72.83691
2023-02-16T03:34:58.136Z,72.07715
2023-02-16T03:36:58.157Z,72.16504
2023-02-16T03:38:58.136Z,71.54297
2023-02-16T03:40:58.190Z,71.67773
2023-02-16T03:42:58.132Z,72.55371
2023-02-16T03:46:48.450Z,72.22852
2023-02-16T03:48:48.497Z,72.37305
2023-02-16T03:50:48.578Z,71.89941
2023-02-16T03:52:48.403Z,71.51172
2023-02-16T03:54:48.432Z,71.75098
2023-02-16T03:56:48.413Z,72.02832
2023-02-16T03:58:48.395Z,71.39355
2023-02-16T04:01:42.105Z,71.4375
2023-02-16T04:03:41.900Z,71.84766
2023-02-16T04:05:42.020Z,72.2666
2023-02-16T04:07:41.868Z,71.72949
2023-02-16T04:09:41.913Z,71.68457
2023-02-16T04:11:41.916Z,71.63184
2023-02-16T04:13:41.940Z,71.25488
2023-02-16T04:16:59.043Z,72.35254
2023-02-16T04:18:59.060Z,71.99512
2023-02-16T04:20:59.143Z,72.21094
2023-02-16T04:22:59.037Z,72.5293
2023-02-16T04:24:59.070Z,72.47559
2023-02-16T04:26:59.069Z,72.1748
2023-02-16T04:28:59.061Z,71.78711
2023-02-16T04:31:48.576Z,71.68262
2023-02-16T04:33:48.268Z,71.51074
2023-02-16T04:35:48.347Z,71.5957
2023-02-16T04:37:48.489Z,71.41699
2023-02-16T04:39:48.292Z,71.98145
2023-02-16T04:41:48.401Z,73.37207
2023-02-16T04:43:48.260Z,73.01758
2023-02-16T04:47:02.027Z,72.35254
2023-02-16T04:49:01.987Z,72.09375
2023-02-16T04:51:02.626Z,72.25195
2023-02-16T04:53:02.036Z,72.78613
2023-02-16T04:55:01.918Z,72.18164
2023-02-16T04:57:01.969Z,73.05957
2023-02-16T04:59:01.975Z,73.03027
2023-02-16T05:01:57.468Z,72.3252
2023-02-16T05:03:57.430Z,71.75098
2023-02-16T05:05:57.376Z,71.2959
2023-02-16T05:07:57.346Z,70.97852
2023-02-16T05:09:57.402Z,70.95703
2023-02-16T05:11:57.365Z,70.76855
2023-02-16T05:13:57.414Z,70.70898
2023-02-16T05:17:06.131Z,70.35449
2023-02-16T05:19:06.160Z,70.94238
2023-02-16T05:21:06.798Z,70.89844
2023-02-16T05:23:06.128Z,70.87891
2023-02-16T05:25:06.138Z,70.40234
2023-02-16T05:27:06.169Z,71.07031
2023-02-16T05:29:06.187Z,71.68262
2023-02-16T05:32:39.150Z,71.30469
2023-02-16T05:34:39.128Z,70.58789
2023-02-16T05:36:39.023Z,70.33984
2023-02-16T05:38:39.068Z,70.28027
2023-02-16T05:40:39.162Z,69.8291
2023-02-16T05:42:39.057Z,69.86328
2023-02-16T05:44:39.085Z,69.77539
2023-02-16T05:47:18.357Z,69.91309
2023-02-16T05:49:18.398Z,69.8877
2023-02-16T05:51:18.316Z,70.08691
2023-02-16T05:53:18.387Z,69.67285
2023-02-16T05:55:18.688Z,69.48145
2023-02-16T05:57:18.468Z,69.47559
2023-02-16T05:59:18.416Z,69.33887
2023-02-16T06:01:18.330Z,69.8418
2023-02-16T06:03:04.385Z,68.87891
2023-02-16T06:05:04.433Z,68.47168
2023-02-16T06:07:04.395Z,68.54492
2023-02-16T06:09:04.337Z,68.75098
2023-02-16T06:11:05.178Z,68.98633
2023-02-16T06:13:04.457Z,68.35742
2023-02-16T06:15:04.370Z,68.71777
2023-02-16T06:18:16.330Z,69.18066
2023-02-16T06:20:16.337Z,69.21094
2023-02-16T06:22:16.390Z,68.87207
2023-02-16T06:24:16.319Z,68.97754
2023-02-16T06:26:16.277Z,68.9502
2023-02-16T06:28:16.331Z,68.61328
2023-02-16T06:30:16.734Z,68.43457
2023-02-16T06:33:41.506Z,68.24414
2023-02-16T06:35:41.411Z,68.31055
2023-02-16T06:37:41.278Z,68.0166
2023-02-16T06:39:41.446Z,67.92383
2023-02-16T06:41:41.366Z,68.02148
2023-02-16T06:43:41.329Z,69.46094
2023-02-16T06:45:41.286Z,69.55566
2023-02-16T06:48:44.628Z,69.38672
2023-02-16T06:50:44.627Z,68.65625
2023-02-16T06:52:44.663Z,68.86328
2023-02-16T06:54:44.612Z,69.3125
2023-02-16T06:56:44.693Z,70.36523
2023-02-16T06:58:44.808Z,70.23535
2023-02-16T07:00:44.725Z,69.58691
2023-02-16T07:03:33.479Z,68.77148
2023-02-16T07:05:33.446Z,68.59863
2023-02-16T07:07:35.261Z,69.49316
2023-02-16T07:09:33.402Z,69.49219
2023-02-16T07:11:33.470Z,69.5
2023-02-16T07:13:33.371Z,69.44238
2023-02-16T07:15:33.481Z,69.46191
2023-02-16T07:18:41.451Z,69.2998
2023-02-16T07:20:41.450Z,68.87695
2023-02-16T07:22:41.525Z,69.4834
2023-02-16T07:24:41.433Z,70.82617
2023-02-16T07:26:41.493Z,70.89648
2023-02-16T07:28:41.439Z,71.74023
2023-02-16T07:30:41.634Z,71.18652
2023-02-16T07:34:16.892Z,71.30762
2023-02-16T07:36:16.937Z,72.16504
2023-02-16T07:38:16.846Z,73.18164
2023-02-16T07:40:16.844Z,72.87793
2023-02-16T07:42:17.134Z,73.125
2023-02-16T07:44:16.977Z,73.00098
2023-02-16T07:46:17.295Z,73.08887
2023-02-16T07:49:24.654Z,72.81738
2023-02-16T07:51:24.793Z,72.2627
2023-02-16T07:53:24.735Z,71.82324
2023-02-16T07:55:24.636Z,71.39746
2023-02-16T07:57:24.591Z,70.89355
2023-02-16T07:59:24.615Z,71.45508
2023-02-16T08:01:24.657Z,71.6416
2023-02-16T08:04:33.775Z,73.27637
2023-02-16T08:06:33.537Z,72.10645
2023-02-16T08:08:33.537Z,73.11523
2023-02-16T08:10:33.578Z,71.375
2023-02-16T08:12:33.577Z,72.2666
2023-02-16T08:14:33.718Z,74.08789
2023-02-16T08:16:33.827Z,72.23438
2023-02-16T08:19:12.859Z,73.13477
2023-02-16T08:21:12.958Z,71.91309
2023-02-16T08:23:12.846Z,73.28223
2023-02-16T08:25:12.838Z,72.1543
2023-02-16T08:27:13.006Z,71.53613
2023-02-16T08:29:12.854Z,72.05762
2023-02-16T08:31:12.976Z,71.84961
2023-02-16T08:34:23.127Z,72.05273
2023-02-16T08:36:22.989Z,71.90918
2023-02-16T08:38:23.018Z,72.70215
2023-02-16T08:40:23.047Z,72.23535
2023-02-16T08:42:22.992Z,71.42773
2023-02-16T08:44:23.109Z,72.94238
2023-02-16T08:46:23.439Z,72.30664
2023-02-16T08:49:58.116Z,71.97949
2023-02-16T08:51:58.231Z,71.44434
2023-02-16T08:53:58.046Z,72.87305
2023-02-16T08:55:58.061Z,72.70996
2023-02-16T08:57:58.013Z,72.65527
2023-02-16T08:59:58.077Z,72.91406
2023-02-16T09:01:58.384Z,73.13574
2023-02-16T09:05:20.153Z,71.68652
2023-02-16T09:07:20.198Z,72.45605
2023-02-16T09:09:20.455Z,72.25195
2023-02-16T09:11:20.107Z,71.80664
2023-02-16T09:13:20.148Z,70.06738
2023-02-16T09:15:20.097Z,70.28613
2023-02-16T09:17:20.171Z,70.60059
2023-02-16T09:20:18.947Z,70.41016
2023-02-16T09:22:19.156Z,69.39648
2023-02-16T09:24:19.031Z,70.15625
2023-02-16T09:26:18.944Z,71.07617
2023-02-16T09:28:18.914Z,70.49316
2023-02-16T09:30:18.962Z,69.57129
2023-02-16T09:32:18.884Z,70.05176
2023-02-16T09:35:25.912Z,67.85742
2023-02-16T09:37:26.013Z,68.0293
2023-02-16T09:39:26.018Z,68.30664
2023-02-16T09:41:25.890Z,67.0293
2023-02-16T09:43:25.930Z,65.875
2023-02-16T09:45:26.100Z,67.21875
2023-02-16T09:47:25.914Z,67.36426
2023-02-16T09:50:55.085Z,67.36719
2023-02-16T09:52:52.597Z,66.05371
2023-02-16T09:54:49.199Z,66.2207
2023-02-16T09:56:49.262Z,65.46973
2023-02-16T09:58:49.208Z,65.8252
2023-02-16T10:00:49.235Z,64.07617
2023-02-16T10:02:49.261Z,63.59375
2023-02-16T10:05:47.033Z,64.34277
2023-02-16T10:07:46.984Z,65.22949
2023-02-16T10:09:47.182Z,63.5459
2023-02-16T10:11:47.125Z,62.73633
2023-02-16T10:13:46.948Z,62.66504
2023-02-16T10:15:47.016Z,62.47754
2023-02-16T10:17:47.124Z,62.97656
2023-02-16T10:20:51.509Z,61.68066
2023-02-16T10:22:51.674Z,61.4248
2023-02-16T10:24:51.687Z,63.48438
2023-02-16T10:26:51.583Z,61.8457
2023-02-16T10:28:51.554Z,60.94043
2023-02-16T10:30:51.849Z,60.11621
2023-02-16T10:32:51.530Z,60.31543
2023-02-16T10:36:16.100Z,59.58594
2023-02-16T10:38:16.073Z,59.77441
2023-02-16T10:40:16.144Z,58.77637
2023-02-16T10:42:16.122Z,57.58984
2023-02-16T10:44:16.070Z,57.50684
2023-02-16T10:46:16.108Z,57.37207
2023-02-16T10:48:16.100Z,57.10938
2023-02-16T10:50:59.712Z,57.10938
2023-02-16T10:52:59.707Z,57.36328
2023-02-16T10:54:59.708Z,56.26074
2023-02-16T10:56:59.849Z,57.29883
2023-02-16T10:58:59.699Z,58.20117
2023-02-16T11:00:59.644Z,57.91602
2023-02-16T11:03:02.344Z,58.17773
2023-02-16T11:06:27.356Z,56.43359
2023-02-16T11:08:30.118Z,56.84766
2023-02-16T11:10:27.335Z,57.16504
2023-02-16T11:12:27.459Z,56.85742
2023-02-16T11:14:27.362Z,57
2023-02-16T11:16:27.414Z,56.63574
2023-02-16T11:18:27.422Z,56.17285
2023-02-16T11:21:24.834Z,56.19531
2023-02-16T11:23:24.812Z,56.0918
2023-02-16T11:25:24.791Z,57.01953
2023-02-16T11:27:24.795Z,57.16699
2023-02-16T11:29:24.772Z,54.09082
2023-02-16T11:31:24.855Z,54.25879
2023-02-16T11:33:24.710Z,53.62109
2023-02-16T11:36:44.061Z,52.45801
2023-02-16T11:38:44.076Z,49.52637
2023-02-16T11:40:44.670Z,50.55957
2023-02-16T11:42:44.043Z,50.18457
2023-02-16T11:44:44.115Z,51.04102
2023-02-16T11:46:44.090Z,49.82227
2023-02-16T11:48:44.022Z,50.18945
2023-02-16T11:52:10.594Z,48.78809
2023-02-16T11:54:10.511Z,50.87207
2023-02-16T11:56:10.529Z,50.22656
2023-02-16T11:58:10.519Z,50.89258
2023-02-16T12:00:10.579Z,50.51855
2023-02-16T12:02:10.577Z,49.59082
2023-02-16T12:04:10.725Z,50.52344
2023-02-16T12:06:58.180Z,49.04785
2023-02-16T12:08:58.217Z,49.37207
2023-02-16T12:10:58.260Z,49.2998
2023-02-16T12:12:58.207Z,50.25
2023-02-16T12:14:58.179Z,49.7627
2023-02-16T12:16:58.250Z,50.87891
2023-02-16T12:18:58.200Z,52.00781
2023-02-16T12:22:27.719Z,48.57715
2023-02-16T12:24:27.778Z,46.9502
2023-02-16T12:26:27.798Z,49.12891
2023-02-16T12:28:27.789Z,46.71094
2023-02-16T12:30:27.945Z,45.86328
2023-02-16T12:32:27.827Z,48.75586
2023-02-16T12:34:27.744Z,46.08496
2023-02-16T12:37:08.469Z,44.50195
2023-02-16T12:39:08.441Z,45.3125
2023-02-16T12:41:08.490Z,44.35938
2023-02-16T12:43:08.543Z,44.80078
2023-02-16T12:45:08.531Z,45.26563
2023-02-16T12:47:08.468Z,42.07031
2023-02-16T12:49:08.469Z,41.9375
2023-02-16T12:52:49.080Z,42.17578
2023-02-16T12:54:49.078Z,41.40625
2023-02-16T12:56:49.068Z,40.84961
2023-02-16T12:58:49.156Z,41.24023
2023-02-16T13:00:49.179Z,40.05664
2023-02-16T13:02:49.180Z,40.98535
2023-02-16T13:04:49.139Z,40.86133
2023-02-16T13:08:06.663Z,39.83496
2023-02-16T13:10:06.520Z,39.19238
2023-02-16T13:12:06.522Z,40.73926
2023-02-16T13:14:06.648Z,41.01855
2023-02-16T13:16:17.428Z,38.45117
2023-02-16T13:18:06.568Z,40.22559
2023-02-16T13:20:06.539Z,39.70605
2023-02-16T13:23:11.857Z,39.94629
2023-02-16T13:25:11.883Z,38.63965
2023-02-16T13:27:11.845Z,38.90137
2023-02-16T13:29:12.093Z,39.08105
2023-02-16T13:31:11.995Z,38.69922
2023-02-16T13:33:11.935Z,40.31641
2023-02-16T13:35:11.897Z,40.29297
2023-02-16T13:38:17.142Z,39.29688
2023-02-16T13:40:17.143Z,39.58105
2023-02-16T13:42:17.151Z,38.7998
2023-02-16T13:44:17.165Z,39.06348
2023-02-16T13:46:17.293Z,38.9209
2023-02-16T13:48:17.162Z,39.18945
2023-02-16T13:50:17.188Z,39.09082
2023-02-16T13:53:32.464Z,38.58789
2023-02-16T13:55:32.417Z,38.99512
2023-02-16T13:57:32.465Z,38.79688
2023-02-16T13:59:32.436Z,39.31152
2023-02-16T14:01:32.684Z,38.89063
2023-02-16T14:03:32.426Z,38.53516
2023-02-16T14:05:32.495Z,38.29883
2023-02-16T14:08:23.179Z,39.11621
2023-02-16T14:10:23.177Z,38.7373
2023-02-16T14:12:23.129Z,37.90527
2023-02-16T14:14:23.325Z,38.49805
2023-02-16T14:16:23.176Z,39.65625
2023-02-16T14:18:26.039Z,39.63086
2023-02-16T14:20:23.138Z,39.2002
2023-02-16T14:23:44.183Z,38.59668
2023-02-16T14:25:44.189Z,38.91992
2023-02-16T14:27:44.139Z,39.18359
2023-02-16T14:29:44.099Z,39.2666
2023-02-16T14:31:44.455Z,40.06055
2023-02-16T14:33:44.104Z,39.4668
2023-02-16T14:35:44.152Z,39.83301
2023-02-16T14:38:23.761Z,39.89941
2023-02-16T14:40:23.823Z,39.83008
2023-02-16T14:42:23.719Z,40.8584
2023-02-16T14:44:23.791Z,40.88965
2023-02-16T14:46:23.996Z,40.88184
2023-02-16T14:48:23.788Z,41.42676
2023-02-16T14:50:23.802Z,41.55664
2023-02-16T14:53:33.685Z,40.50879
2023-02-16T14:55:33.800Z,41.41211
2023-02-16T14:57:33.702Z,41.41699
2023-02-16T14:59:33.678Z,41.48633
2023-02-16T15:01:33.819Z,41.83301
2023-02-16T15:03:34.172Z,41.91309
2023-02-16T15:05:33.932Z,42.82324
2023-02-16T15:08:57.128Z,42.84766
2023-02-16T15:10:57.030Z,42.09668
2023-02-16T15:12:56.990Z,42.41211
2023-02-16T15:14:57.033Z,42.71191
2023-02-16T15:16:56.967Z,42.29492
2023-02-16T15:18:56.941Z,42.39746
2023-02-16T15:20:56.996Z,42.87891
2023-02-16T15:23:55.268Z,42.25195
2023-02-16T15:25:55.154Z,43.0166
2023-02-16T15:27:55.059Z,42.64551
2023-02-16T15:29:55.198Z,42.88867
2023-02-16T15:31:55.683Z,43.5791
2023-02-16T15:33:54.972Z,43.0166
2023-02-16T15:35:55.060Z,43.34277
2023-02-16T15:40:22.936Z,42.88379
2023-02-16T15:41:47.570Z,43.1543
2023-02-16T15:43:47.637Z,43.47461
2023-02-16T15:45:47.469Z,43.45996
2023-02-16T15:47:47.524Z,43.83105
2023-02-16T15:49:47.450Z,43.37891
2023-02-16T15:51:47.653Z,43.8457
2023-02-16T15:54:14.493Z,43.02148
2023-02-16T15:56:14.313Z,43.88281
2023-02-16T15:58:14.323Z,44.0293
2023-02-16T16:00:14.483Z,43.95508
2023-02-16T16:02:14.549Z,44.62695
2023-02-16T16:04:14.325Z,44.10645
2023-02-16T16:06:14.259Z,44.69238
2023-02-16T16:09:55.678Z,44.46387
2023-02-16T16:11:55.658Z,44.69727
2023-02-16T16:13:55.684Z,44.88379
2023-02-16T16:15:55.736Z,44.9375
2023-02-16T16:17:55.613Z,44.11816
2023-02-16T16:19:55.772Z,44.92871
2023-02-16T16:21:55.837Z,44.54102
2023-02-16T16:24:26.234Z,44.64941
2023-02-16T16:26:26.273Z,43.73633
2023-02-16T16:28:26.255Z,43.5752
2023-02-16T16:30:26.441Z,43.57324
2023-02-16T16:32:26.441Z,44.12305
2023-02-16T16:34:26.256Z,42.74609
2023-02-16T16:36:26.254Z,43.85449
2023-02-16T16:38:26.274Z,43.9502
2023-02-16T16:39:33.607Z,44.3623
2023-02-16T16:41:33.478Z,44.09277
2023-02-16T16:43:33.580Z,44.2041
2023-02-16T16:45:33.527Z,42.47266
2023-02-16T16:47:33.550Z,43.75195
2023-02-16T16:49:33.472Z,43.62891
2023-02-16T16:51:33.438Z,43.60059
2023-02-16T16:53:33.466Z,43.41406
2023-02-16T16:54:51.844Z,43.77246
2023-02-16T16:56:51.829Z,43.9873
2023-02-16T16:58:51.826Z,44.71484
2023-02-16T17:00:51.780Z,46.18457
2023-02-16T17:02:51.935Z,46.81641
2023-02-16T17:04:51.828Z,46.45801
2023-02-16T17:06:51.771Z,46.4707
2023-02-16T17:10:24.573Z,44.82031
2023-02-16T17:12:24.431Z,45.60254
2023-02-16T17:14:24.467Z,44.73535
2023-02-16T17:16:24.397Z,45.51563
2023-02-16T17:18:24.737Z,45.70117
2023-02-16T17:20:24.530Z,46.39258
2023-02-16T17:22:24.444Z,46.00977
2023-02-16T17:25:26.359Z,46.74414
2023-02-16T17:27:26.442Z,47.01465
2023-02-16T17:29:26.339Z,46.59766
2023-02-16T17:31:26.636Z,47.15137
2023-02-16T17:33:26.353Z,47.89453
2023-02-16T17:35:26.460Z,48.74512
2023-02-16T17:37:26.350Z,48.18262
2023-02-16T17:41:10.532Z,48.43945
2023-02-16T17:43:10.555Z,49.35352
2023-02-16T17:45:10.498Z,48.95703
2023-02-16T17:47:10.502Z,49.43848
2023-02-16T17:49:10.525Z,49.03613
2023-02-16T17:51:10.598Z,49.93652
2023-02-16T17:53:10.518Z,50.74512
2023-02-16T17:56:15.988Z,50.2959
2023-02-16T17:58:15.916Z,50.33789
2023-02-16T18:00:15.879Z,49.67969
2023-02-16T18:02:15.906Z,49.58301
2023-02-16T18:04:16.116Z,50.08691
2023-02-16T18:06:16.018Z,51.01172
2023-02-16T18:08:16.128Z,49.99023
2023-02-16T18:10:39.263Z,49.69727
2023-02-16T18:12:39.139Z,50.31641
2023-02-16T18:14:39.113Z,50.0127
2023-02-16T18:16:39.224Z,50.1084
2023-02-16T18:18:39.441Z,50.41797
2023-02-16T18:20:39.145Z,50.95801
2023-02-16T18:22:39.169Z,51.45605
2023-02-16T18:24:39.177Z,50.7041
2023-02-16T18:26:30.306Z,50.55371
2023-02-16T18:28:30.342Z,50.66504
2023-02-16T18:30:30.723Z,50.97461
2023-02-16T18:32:30.312Z,50.1748
2023-02-16T18:34:30.290Z,50.40332
2023-02-16T18:36:30.443Z,50.89551
2023-02-16T18:38:30.341Z,50.91992
2023-02-16T18:41:31.091Z,51.4668
2023-02-16T18:43:31.070Z,51.67773
2023-02-16T18:45:31.111Z,51.68848
2023-02-16T18:47:31.075Z,51.80762
2023-02-16T18:49:31.306Z,51.92871
2023-02-16T18:51:31.414Z,51.87598
2023-02-16T18:53:31.091Z,51.90527
2023-02-16T18:56:05.268Z,52.2627
2023-02-16T18:58:07.870Z,52.38867
2023-02-16T19:00:04.140Z,52.65039
2023-02-16T19:02:04.134Z,52.62988
2023-02-16T19:04:04.340Z,52.51172
2023-02-16T19:06:04.943Z,52.37012
2023-02-16T19:08:04.168Z,53.1084
2023-02-16T19:10:04.200Z,52.89453
2023-02-16T19:11:44.353Z,52.43164
2023-02-16T19:13:44.803Z,52.69043
2023-02-16T19:15:44.953Z,52.70801
2023-02-16T19:17:44.582Z,53.45605
2023-02-16T19:19:44.774Z,52.95313
2023-02-16T19:21:44.569Z,52.63672
2023-02-16T19:23:44.278Z,52.61621
2023-02-16T19:27:09.788Z,52.9043
2023-02-16T19:29:09.726Z,52.83887
2023-02-16T19:31:09.999Z,53.27148
2023-02-16T19:33:09.762Z,52.9502
2023-02-16T19:35:09.793Z,52.98633
2023-02-16T19:37:09.780Z,53.67969
2023-02-16T19:39:09.721Z,53.88184
2023-02-16T19:41:51.180Z,54.44922
2023-02-16T19:43:51.155Z,54.48145
2023-02-16T19:45:51.229Z,54.64551
2023-02-16T19:47:51.052Z,54.12109
2023-02-16T19:49:51.123Z,54.14746
2023-02-16T19:51:51.073Z,54.92773
2023-02-16T19:53:51.134Z,55.5
2023-02-16T19:56:49.979Z,55.33301
2023-02-16T19:58:50.032Z,55.30371
2023-02-16T20:00:50.089Z,55.28027
2023-02-16T20:02:50.362Z,56.3877
2023-02-16T20:04:50.588Z,57.08789
2023-02-16T20:06:50.713Z,56.76953
2023-02-16T20:08:50.023Z,56.58203
2023-02-16T20:10:49.945Z,56.62793
2023-02-16T20:12:32.939Z,56.90527
2023-02-16T20:14:32.589Z,56.88672
2023-02-16T20:16:32.838Z,57.45801
2023-02-16T20:18:34.129Z,57.45215
2023-02-16T20:20:32.416Z,57.18262
2023-02-16T20:22:32.442Z,57.4375
2023-02-16T20:24:32.337Z,57.31934
2023-02-16T20:27:59.734Z,58.29883
2023-02-16T20:29:59.902Z,57.6875
2023-02-16T20:32:00.055Z,58.37793
2023-02-16T20:33:59.678Z,58.04395
2023-02-16T20:35:59.779Z,58.62988
2023-02-16T20:37:59.932Z,58.9043
2023-02-16T20:39:59.993Z,59.50781
2023-02-16T20:42:54.571Z,58.60156
2023-02-16T20:44:54.239Z,58.89648
2023-02-16T20:46:54.499Z,59.07227
2023-02-16T20:48:55.101Z,59.69629
2023-02-16T20:50:54.257Z,60.32813
2023-02-16T20:52:54.460Z,59.84961
2023-02-16T20:54:55.167Z,60.27344
2023-02-16T20:57:39.940Z,59.52637
2023-02-16T20:59:40.050Z,59.7959
2023-02-16T21:01:40.391Z,59.66211
2023-02-16T21:03:39.722Z,59.78223
2023-02-16T21:05:39.811Z,59.81445
2023-02-16T21:07:39.900Z,59.68066
2023-02-16T21:09:39.823Z,59.5791
2023-02-16T21:12:41.067Z,60.03809
2023-02-16T21:14:40.906Z,60.77734
2023-02-16T21:16:41.107Z,60.82324
2023-02-16T21:18:41.026Z,61.0127
2023-02-16T21:20:40.844Z,61.28027
2023-02-16T21:22:40.891Z,61.55566
2023-02-16T21:24:41.889Z,61.25098
2023-02-16T21:28:24.411Z,61.00488
2023-02-16T21:30:22.648Z,61.02539
2023-02-16T21:32:22.432Z,61.83301
2023-02-16T21:34:22.494Z,62
2023-02-16T21:36:22.465Z,62.13672
2023-02-16T21:38:22.502Z,61.79395
2023-02-16T21:40:22.540Z,62.42969
2023-02-16T21:43:24.123Z,62.45605
2023-02-16T21:45:24.433Z,62.56348
2023-02-16T21:47:23.987Z,63.05469
2023-02-16T21:49:24.040Z,63.31934
2023-02-16T21:51:23.968Z,63.1543
2023-02-16T21:53:23.954Z,63.06836
2023-02-16T21:55:24.028Z,63.16504
2023-02-16T21:58:57.590Z,62.91992
2023-02-16T22:00:57.676Z,62.53809
2023-02-16T22:02:57.634Z,63.02734
2023-02-16T22:04:57.522Z,63.25391
2023-02-16T22:06:57.534Z,63.27148
2023-02-16T22:08:57.594Z,63.85547
2023-02-16T22:10:57.860Z,64.25977
2023-02-16T22:13:16.163Z,64.20508
2023-02-16T22:15:16.080Z,63.18164
2023-02-16T22:17:16.099Z,63.73047
2023-02-16T22:19:15.908Z,63.56934
2023-02-16T22:21:15.847Z,64.35059
2023-02-16T22:23:16.034Z,64.53711
2023-02-16T22:25:15.843Z,64.22754
2023-02-16T22:27:15.894Z,64.28613
2023-02-16T22:29:03.914Z,64.60742
2023-02-16T22:31:03.978Z,64.83887
2023-02-16T22:33:03.939Z,64.88672
2023-02-16T22:35:03.890Z,65.13184
2023-02-16T22:37:03.933Z,65.14551
2023-02-16T22:39:03.869Z,65.34473
2023-02-16T22:41:03.916Z,65.0332
2023-02-16T22:43:56.417Z,65.46777
2023-02-16T22:45:56.537Z,64.95801
2023-02-16T22:47:56.359Z,64.64258
2023-02-16T22:49:56.399Z,65.35156
2023-02-16T22:51:56.352Z,65.56934
2023-02-16T22:53:56.362Z,65.43652
2023-02-16T22:55:56.336Z,65.39551
2023-02-16T22:59:38.141Z,65.1748
2023-02-16T23:01:38.129Z,65.44043
2023-02-16T23:03:38.074Z,65.21191
2023-02-16T23:05:38.159Z,65.4209
2023-02-16T23:07:38.132Z,65.16504
2023-02-16T23:09:38.056Z,65.03809
2023-02-16T23:11:38.109Z,65.5
2023-02-16T23:13:49.156Z,65.57422
2023-02-16T23:15:49.176Z,64.99023
2023-02-16T23:17:49.125Z,65.44434
2023-02-16T23:19:49.132Z,65.79004
2023-02-16T23:21:49.176Z,65.75195
2023-02-16T23:23:49.488Z,65.6416
2023-02-16T23:25:49.447Z,65.72656
2023-02-16T23:27:49.361Z,66.12891
2023-02-16T23:29:25.175Z,66.26758
2023-02-16T23:31:25.258Z,66.26172
2023-02-16T23:33:24.846Z,65.95605
2023-02-16T23:35:24.895Z,66.03809
2023-02-16T23:37:24.831Z,66.35742
2023-02-16T23:39:24.829Z,66.56543
2023-02-16T23:41:24.861Z,67.93652
2023-02-16T23:45:04.115Z,67.16309
2023-02-16T23:47:04.162Z,66.51172
2023-02-16T23:49:04.087Z,67.12891
2023-02-16T23:51:04.118Z,66.4209
2023-02-16T23:53:04.129Z,66.43164
2023-02-16T23:55:04.153Z,67.28809
2023-02-16T23:57:04.091Z,68.12695
